createdAt,value
2023-02-09T00:01:30.167Z,99.90
2023-02-09T00:04:00.065Z,99.90
2023-02-09T00:06:30.051Z,99.90
2023-02-09T00:08:58.134Z,99.90
2023-02-09T00:11:46.226Z,99.90
2023-02-09T00:14:14.760Z,99.90
2023-02-09T00:16:41.903Z,99.90
2023-02-09T00:19:08.755Z,99.90
2023-02-09T00:21:35.560Z,99.90
2023-02-09T00:24:02.488Z,99.90
2023-02-09T00:26:29.328Z,99.90
2023-02-09T00:28:56.108Z,99.90
2023-02-09T00:31:23.094Z,99.90
2023-02-09T00:33:49.952Z,99.90
2023-02-09T00:36:16.886Z,99.90
2023-02-09T00:38:44.322Z,99.90
2023-02-09T00:41:12.193Z,99.90
2023-02-09T00:43:39.292Z,99.90
2023-02-09T00:46:06.387Z,99.90
2023-02-09T00:48:33.467Z,99.90
2023-02-09T00:51:00.971Z,99.90
2023-02-09T00:53:28.137Z,99.90
2023-02-09T00:55:54.938Z,99.90
2023-02-09T00:58:21.782Z,99.90
2023-02-09T01:00:49.764Z,99.90
2023-02-09T01:03:18.207Z,99.90
2023-02-09T01:05:44.950Z,99.90
2023-02-09T01:08:11.993Z,99.90
2023-02-09T01:10:39.116Z,99.90
2023-02-09T01:13:06.034Z,99.90
2023-02-09T01:15:33.068Z,99.90
2023-02-09T01:18:00.023Z,99.90
2023-02-09T01:20:28.254Z,99.90
2023-02-09T01:22:55.177Z,99.90
2023-02-09T01:25:21.950Z,99.90
2023-02-09T01:27:48.867Z,99.90
2023-02-09T01:30:16.328Z,99.90
2023-02-09T01:32:43.292Z,99.90
2023-02-09T01:35:10.930Z,99.90
2023-02-09T01:37:37.801Z,99.90
2023-02-09T01:40:05.220Z,99.90
2023-02-09T01:42:32.281Z,99.90
2023-02-09T01:45:06.122Z,99.90
2023-02-09T01:47:37.038Z,99.90
2023-02-09T01:50:04.085Z,99.90
2023-02-09T01:52:31.383Z,99.90
2023-02-09T01:55:10.745Z,99.90
2023-02-09T01:57:42.917Z,99.90
2023-02-09T02:00:18.083Z,99.90
2023-02-09T02:02:57.668Z,99.90
2023-02-09T02:05:26.323Z,99.90
2023-02-09T02:08:02.774Z,99.90
2023-02-09T02:10:30.659Z,99.90
2023-02-09T02:12:59.537Z,99.90
2023-02-09T02:15:31.083Z,99.90
2023-02-09T02:18:10.916Z,99.90
2023-02-09T02:20:58.748Z,99.90
2023-02-09T02:23:41.044Z,99.90
2023-02-09T02:26:38.861Z,99.90
2023-02-09T02:29:43.398Z,99.90
2023-02-09T02:32:17.935Z,99.90
2023-02-09T02:34:58.091Z,99.90
2023-02-09T02:37:32.878Z,99.90
2023-02-09T02:40:23.891Z,99.90
2023-02-09T02:43:09.444Z,99.90
2023-02-09T02:45:44.052Z,99.90
2023-02-09T02:48:19.080Z,99.90
2023-02-09T02:50:59.615Z,99.90
2023-02-09T02:53:30.113Z,99.90
2023-02-09T02:56:03.152Z,99.90
2023-02-09T02:58:31.094Z,99.90
2023-02-09T03:01:03.933Z,99.90
2023-02-09T03:03:34.178Z,99.90
2023-02-09T03:06:04.851Z,99.90
2023-02-09T03:08:55.798Z,99.90
2023-02-09T03:11:26.707Z,99.90
2023-02-09T03:14:06.170Z,99.90
2023-02-09T03:17:28.354Z,99.90
2023-02-09T03:20:08.303Z,99.90
2023-02-09T03:22:45.481Z,99.90
2023-02-09T03:25:23.814Z,99.90
2023-02-09T03:28:10.041Z,99.90
2023-02-09T03:30:40.942Z,99.90
2023-02-09T03:33:22.539Z,99.90
2023-02-09T03:35:52.130Z,99.90
2023-02-09T03:38:19.083Z,99.90
2023-02-09T03:40:46.045Z,99.90
2023-02-09T03:43:13.223Z,99.90
2023-02-09T03:45:40.132Z,99.90
2023-02-09T03:48:07.441Z,99.90
2023-02-09T03:50:35.728Z,99.90
2023-02-09T03:53:06.534Z,99.90
2023-02-09T03:55:35.875Z,99.90
2023-02-09T03:58:02.682Z,99.90
2023-02-09T04:00:29.516Z,99.90
2023-02-09T04:02:56.738Z,99.90
2023-02-09T04:05:24.652Z,99.90
2023-02-09T04:07:51.486Z,99.90
2023-02-09T04:10:19.011Z,99.90
2023-02-09T04:12:46.062Z,99.90
2023-02-09T04:15:12.874Z,99.90
2023-02-09T04:17:39.787Z,99.90
2023-02-09T04:20:07.299Z,99.90
2023-02-09T04:22:34.136Z,99.90
2023-02-09T04:25:00.940Z,99.90
2023-02-09T04:27:28.418Z,99.90
2023-02-09T04:29:55.200Z,99.90
2023-02-09T04:32:22.011Z,99.90
2023-02-09T04:34:49.914Z,99.90
2023-02-09T04:37:16.762Z,99.90
2023-02-09T04:39:43.562Z,99.90
2023-02-09T04:42:10.327Z,99.90
2023-02-09T04:44:37.148Z,99.90
2023-02-09T04:47:03.965Z,99.90
2023-02-09T04:49:30.812Z,99.90
2023-02-09T04:51:57.603Z,99.90
2023-02-09T04:54:24.292Z,99.90
2023-02-09T04:57:11.032Z,99.90
2023-02-09T04:59:40.933Z,99.90
2023-02-09T05:02:08.250Z,99.90
2023-02-09T05:04:35.047Z,99.90
2023-02-09T05:07:02.254Z,99.90
2023-02-09T05:09:29.227Z,99.90
2023-02-09T05:11:56.100Z,99.90
2023-02-09T05:14:22.811Z,99.90
2023-02-09T05:16:49.897Z,99.90
2023-02-09T05:19:16.775Z,99.90
2023-02-09T05:21:43.556Z,99.90
2023-02-09T05:24:10.301Z,99.90
2023-02-09T05:26:39.152Z,99.90
2023-02-09T05:29:05.908Z,99.90
2023-02-09T05:31:37.521Z,99.90
2023-02-09T05:34:04.349Z,99.90
2023-02-09T05:36:31.087Z,99.90
2023-02-09T05:38:57.861Z,99.90
2023-02-09T05:41:44.165Z,99.90
2023-02-09T05:44:10.929Z,99.90
2023-02-09T05:46:39.379Z,99.90
2023-02-09T05:49:06.116Z,99.90
2023-02-09T05:51:33.861Z,99.90
2023-02-09T05:54:00.821Z,99.90
2023-02-09T05:56:27.656Z,99.90
2023-02-09T05:58:54.885Z,99.90
2023-02-09T06:01:21.891Z,99.90
2023-02-09T06:03:48.677Z,99.90
2023-02-09T06:06:15.430Z,99.90
2023-02-09T06:08:42.244Z,99.90
2023-02-09T06:11:08.974Z,99.90
2023-02-09T06:13:35.974Z,99.90
2023-02-09T06:16:02.801Z,99.90
2023-02-09T06:18:29.640Z,99.90
2023-02-09T06:20:56.466Z,99.90
2023-02-09T06:23:23.242Z,99.90
2023-02-09T06:25:53.100Z,99.90
2023-02-09T06:28:20.873Z,99.90
2023-02-09T06:30:51.479Z,99.90
2023-02-09T06:33:19.959Z,99.90
2023-02-09T06:35:46.898Z,99.90
2023-02-09T06:38:13.718Z,99.90
2023-02-09T06:40:40.467Z,99.90
2023-02-09T06:43:07.256Z,99.90
2023-02-09T06:45:34.083Z,99.90
2023-02-09T06:48:00.809Z,99.90
2023-02-09T06:50:28.068Z,99.90
2023-02-09T06:52:56.886Z,99.90
2023-02-09T06:55:23.732Z,99.90
2023-02-09T06:57:51.176Z,99.90
2023-02-09T07:00:18.401Z,99.90
2023-02-09T07:02:46.149Z,99.90
2023-02-09T07:05:14.750Z,99.90
2023-02-09T07:07:42.525Z,99.90
2023-02-09T07:10:10.571Z,99.90
2023-02-09T07:12:38.437Z,99.90
2023-02-09T07:15:08.144Z,99.90
2023-02-09T07:17:34.974Z,99.90
2023-02-09T07:20:03.875Z,99.90
2023-02-09T07:22:30.955Z,99.90
2023-02-09T07:24:58.021Z,99.90
2023-02-09T07:27:25.749Z,99.90
2023-02-09T07:29:52.555Z,99.90
2023-02-09T07:32:19.423Z,99.90
2023-02-09T07:34:46.547Z,99.90
2023-02-09T07:37:13.917Z,99.90
2023-02-09T07:39:43.379Z,99.90
2023-02-09T07:42:10.307Z,99.90
2023-02-09T07:44:37.024Z,99.90
2023-02-09T07:47:03.981Z,99.90
2023-02-09T07:49:30.746Z,99.90
2023-02-09T07:51:59.820Z,99.90
2023-02-09T07:54:26.891Z,99.90
2023-02-09T07:56:56.801Z,99.90
2023-02-09T07:59:23.744Z,99.90
2023-02-09T08:01:51.548Z,99.90
2023-02-09T08:04:18.454Z,99.90
2023-02-09T08:06:46.394Z,99.90
2023-02-09T08:09:15.194Z,99.90
2023-02-09T08:11:58.653Z,99.90
2023-02-09T08:14:39.645Z,99.90
2023-02-09T08:17:27.912Z,99.90
2023-02-09T08:20:03.805Z,99.90
2023-02-09T08:22:35.162Z,99.90
2023-02-09T08:25:03.729Z,99.90
2023-02-09T08:27:32.021Z,99.90
2023-02-09T08:30:00.384Z,99.90
2023-02-09T08:32:28.289Z,99.90
2023-02-09T08:34:55.026Z,99.90
2023-02-09T08:37:21.746Z,99.90
2023-02-09T08:39:52.814Z,99.90
2023-02-09T08:42:19.610Z,99.90
2023-02-09T08:44:46.789Z,99.90
2023-02-09T08:47:13.614Z,99.90
2023-02-09T08:49:41.622Z,99.90
2023-02-09T08:52:08.395Z,99.90
2023-02-09T08:54:35.999Z,99.90
2023-02-09T08:57:02.787Z,99.90
2023-02-09T08:59:29.653Z,99.90
2023-02-09T09:02:09.230Z,99.90
2023-02-09T09:04:46.212Z,99.90
2023-02-09T09:07:13.231Z,99.90
2023-02-09T09:09:40.263Z,99.90
2023-02-09T09:12:07.357Z,99.90
2023-02-09T09:14:35.276Z,99.90
2023-02-09T09:17:02.068Z,99.90
2023-02-09T09:19:29.265Z,99.90
2023-02-09T09:21:58.649Z,99.90
2023-02-09T09:24:29.264Z,99.90
2023-02-09T09:26:56.693Z,99.90
2023-02-09T09:29:23.754Z,99.90
2023-02-09T09:31:50.665Z,99.90
2023-02-09T09:34:17.467Z,99.90
2023-02-09T09:36:44.187Z,99.90
2023-02-09T09:39:10.978Z,99.90
2023-02-09T09:41:38.595Z,99.90
2023-02-09T09:44:15.475Z,99.90
2023-02-09T09:46:46.030Z,99.90
2023-02-09T09:49:26.310Z,99.90
2023-02-09T09:52:05.944Z,99.90
2023-02-09T09:54:35.881Z,99.90
2023-02-09T09:57:03.409Z,99.90
2023-02-09T09:59:38.812Z,99.90
2023-02-09T10:02:32.757Z,99.90
2023-02-09T10:05:22.662Z,99.90
2023-02-09T10:08:08.658Z,99.90
2023-02-09T10:10:46.016Z,99.90
2023-02-09T10:13:36.338Z,99.90
2023-02-09T10:16:04.918Z,99.90
2023-02-09T10:18:36.214Z,99.90
2023-02-09T10:21:08.835Z,99.90
2023-02-09T10:23:47.532Z,99.90
2023-02-09T10:26:42.899Z,99.90
2023-02-09T10:29:12.748Z,99.90
2023-02-09T10:31:43.367Z,99.90
2023-02-09T10:34:31.400Z,99.90
2023-02-09T10:37:18.660Z,99.90
2023-02-09T10:39:52.940Z,99.90
2023-02-09T10:42:24.269Z,99.90
2023-02-09T10:44:54.783Z,99.90
2023-02-09T10:47:23.670Z,99.90
2023-02-09T10:50:00.988Z,99.90
2023-02-09T10:52:35.773Z,99.90
2023-02-09T10:55:14.781Z,99.90
2023-02-09T10:57:42.101Z,99.90
2023-02-09T11:00:19.403Z,99.90
2023-02-09T11:02:52.233Z,99.90
2023-02-09T11:05:21.993Z,99.90
2023-02-09T11:08:03.733Z,99.90
2023-02-09T11:10:35.379Z,99.90
2023-02-09T11:13:02.899Z,99.90
2023-02-09T11:15:40.533Z,99.90
2023-02-09T11:18:17.073Z,99.90
2023-02-09T11:21:03.382Z,99.90
2023-02-09T11:23:54.242Z,99.90
2023-02-09T11:26:51.487Z,99.90
2023-02-09T11:29:35.711Z,99.90
2023-02-09T11:32:16.971Z,99.90
2023-02-09T11:34:55.183Z,99.90
2023-02-09T11:37:21.906Z,99.90
2023-02-09T11:40:01.839Z,99.90
2023-02-09T11:42:46.794Z,99.90
2023-02-09T11:45:44.534Z,99.90
2023-02-09T11:48:14.386Z,99.90
2023-02-09T11:51:01.965Z,99.90
2023-02-09T11:53:50.000Z,99.90
2023-02-09T11:56:20.270Z,99.90
2023-02-09T11:58:51.551Z,99.90
2023-02-09T12:01:49.077Z,99.90
2023-02-09T12:04:24.818Z,99.10
2023-02-09T12:06:56.023Z,99.10
2023-02-09T12:09:31.753Z,99.90
2023-02-09T12:12:08.076Z,99.80
2023-02-09T12:14:53.892Z,98.90
2023-02-09T12:17:46.482Z,99.90
2023-02-09T12:20:25.465Z,98.60
2023-02-09T12:23:18.014Z,98.00
2023-02-09T12:25:51.780Z,97.70
2023-02-09T12:28:27.501Z,96.40
2023-02-09T12:30:54.832Z,96.90
2023-02-09T12:33:24.553Z,96.50
2023-02-09T12:36:09.828Z,96.80
2023-02-09T12:39:04.644Z,96.50
2023-02-09T12:41:34.739Z,96.00
2023-02-09T12:44:10.687Z,95.70
2023-02-09T12:46:57.837Z,94.30
2023-02-09T12:49:27.449Z,95.10
2023-02-09T12:52:12.800Z,96.40
2023-02-09T12:54:41.980Z,96.70
2023-02-09T12:57:15.081Z,96.10
2023-02-09T12:59:55.279Z,96.20
2023-02-09T13:02:48.336Z,96.40
2023-02-09T13:05:39.728Z,95.50
2023-02-09T13:08:18.475Z,97.00
2023-02-09T13:11:11.243Z,97.10
2023-02-09T13:13:44.273Z,97.00
2023-02-09T13:16:29.763Z,96.80
2023-02-09T13:19:11.970Z,97.10
2023-02-09T13:21:53.535Z,97.40
2023-02-09T13:24:34.052Z,96.30
2023-02-09T13:27:01.276Z,95.40
2023-02-09T13:29:30.434Z,95.70
2023-02-09T13:32:15.724Z,95.80
2023-02-09T13:35:04.575Z,95.60
2023-02-09T13:37:54.341Z,95.50
2023-02-09T13:40:31.574Z,96.00
2023-02-09T13:43:07.084Z,96.00
2023-02-09T13:45:33.890Z,95.30
2023-02-09T13:48:02.767Z,96.00
2023-02-09T13:50:30.284Z,97.00
2023-02-09T13:53:10.390Z,96.90
2023-02-09T13:55:39.973Z,97.60
2023-02-09T13:58:14.308Z,97.00
2023-02-09T14:00:44.642Z,95.30
2023-02-09T14:03:57.539Z,94.60
2023-02-09T14:06:25.112Z,94.70
2023-02-09T14:08:53.467Z,95.20
2023-02-09T14:11:43.001Z,95.20
2023-02-09T14:14:22.211Z,94.50
2023-02-09T14:17:22.972Z,94.40
2023-02-09T14:19:52.379Z,93.40
2023-02-09T14:22:40.018Z,93.20
2023-02-09T14:25:28.768Z,93.30
2023-02-09T14:27:56.581Z,93.20
2023-02-09T14:30:32.046Z,92.50
2023-02-09T14:33:03.578Z,92.10
2023-02-09T14:35:38.814Z,92.60
2023-02-09T14:38:06.039Z,94.00
2023-02-09T14:40:37.187Z,94.40
2023-02-09T14:43:13.643Z,93.90
2023-02-09T14:45:46.880Z,94.40
2023-02-09T14:48:21.721Z,93.70
2023-02-09T14:50:50.798Z,93.60
2023-02-09T14:53:18.763Z,94.00
2023-02-09T14:55:45.963Z,93.20
2023-02-09T14:58:23.477Z,93.20
2023-02-09T15:00:51.791Z,93.10
2023-02-09T15:03:19.231Z,93.20
2023-02-09T15:05:48.816Z,92.00
2023-02-09T15:08:20.001Z,92.60
2023-02-09T15:11:03.053Z,92.40
2023-02-09T15:13:31.257Z,92.50
2023-02-09T15:15:58.544Z,92.40
2023-02-09T15:18:26.960Z,92.50
2023-02-09T15:20:54.012Z,93.00
2023-02-09T15:23:20.830Z,92.20
2023-02-09T15:25:48.306Z,92.80
2023-02-09T15:28:28.114Z,93.30
2023-02-09T15:30:56.901Z,94.20
2023-02-09T15:33:25.872Z,94.50
2023-02-09T15:35:53.132Z,94.70
2023-02-09T15:38:20.563Z,94.20
2023-02-09T15:41:07.916Z,94.40
2023-02-09T15:43:53.871Z,94.30
2023-02-09T15:46:40.365Z,94.10
2023-02-09T15:49:07.616Z,94.30
2023-02-09T15:51:37.061Z,94.60
2023-02-09T15:54:09.198Z,93.80
2023-02-09T15:56:36.764Z,93.80
2023-02-09T15:59:05.492Z,93.20
2023-02-09T16:01:35.874Z,93.60
2023-02-09T16:04:13.743Z,94.20
2023-02-09T16:06:48.499Z,94.10
2023-02-09T16:09:19.404Z,94.40
2023-02-09T16:11:48.279Z,94.80
2023-02-09T16:14:22.159Z,95.40
2023-02-09T16:16:50.038Z,97.90
2023-02-09T16:19:17.683Z,96.30
2023-02-09T16:21:49.902Z,96.80
2023-02-09T16:24:28.679Z,97.60
2023-02-09T16:26:55.880Z,97.50
2023-02-09T16:29:25.845Z,97.90
2023-02-09T16:31:55.736Z,98.40
2023-02-09T16:34:22.648Z,98.80
2023-02-09T16:36:50.019Z,98.50
2023-02-09T16:39:21.676Z,98.50
2023-02-09T16:41:50.829Z,98.30
2023-02-09T16:44:23.275Z,97.70
2023-02-09T16:46:57.889Z,98.20
2023-02-09T16:49:39.560Z,98.30
2023-02-09T16:52:20.460Z,98.20
2023-02-09T16:54:50.189Z,98.10
2023-02-09T16:57:18.998Z,98.00
2023-02-09T16:59:46.197Z,98.40
2023-02-09T17:02:37.769Z,98.70
2023-02-09T17:05:29.308Z,99.90
2023-02-09T17:08:20.141Z,99.90
2023-02-09T17:10:48.994Z,99.90
2023-02-09T17:13:22.031Z,99.90
2023-02-09T17:16:01.312Z,99.90
2023-02-09T17:18:34.873Z,99.90
2023-02-09T17:21:09.869Z,99.90
2023-02-09T17:23:37.052Z,99.90
2023-02-09T17:26:04.343Z,99.90
2023-02-09T17:28:31.428Z,99.90
2023-02-09T17:31:01.210Z,99.90
2023-02-09T17:33:36.184Z,99.90
2023-02-09T17:36:25.087Z,99.90
2023-02-09T17:38:51.461Z,99.90
2023-02-09T17:41:33.651Z,99.90
2023-02-09T17:44:22.247Z,99.90
2023-02-09T17:46:53.921Z,99.90
2023-02-09T17:49:20.748Z,99.90
2023-02-09T17:51:49.018Z,99.90
2023-02-09T17:54:19.643Z,99.90
2023-02-09T17:56:46.821Z,99.90
2023-02-09T17:59:14.836Z,99.90
2023-02-09T18:01:46.855Z,99.90
2023-02-09T18:04:19.385Z,99.90
2023-02-09T18:06:46.242Z,99.90
2023-02-09T18:09:16.434Z,99.90
2023-02-09T18:11:52.380Z,99.90
2023-02-09T18:14:21.242Z,99.90
2023-02-09T18:16:49.117Z,99.90
2023-02-09T18:19:16.911Z,99.90
2023-02-09T18:21:51.121Z,99.90
2023-02-09T18:24:21.266Z,99.90
2023-02-09T18:26:49.907Z,99.90
2023-02-09T18:29:17.889Z,99.90
2023-02-09T18:31:44.721Z,99.90
2023-02-09T18:34:11.478Z,99.90
2023-02-09T18:36:38.351Z,99.90
2023-02-09T18:39:05.617Z,99.90
2023-02-09T18:41:32.592Z,99.90
2023-02-09T18:43:59.390Z,99.90
2023-02-09T18:46:27.090Z,99.90
2023-02-09T18:48:54.731Z,99.90
2023-02-09T18:51:22.142Z,99.90
2023-02-09T18:53:52.057Z,99.90
2023-02-09T18:56:20.926Z,99.90
2023-02-09T18:58:51.277Z,99.90
2023-02-09T19:01:22.015Z,99.90
2023-02-09T19:03:50.455Z,99.90
2023-02-09T19:06:17.771Z,99.90
2023-02-09T19:08:44.651Z,99.90
2023-02-09T19:11:16.794Z,99.90
2023-02-09T19:14:03.934Z,99.90
2023-02-09T19:16:33.234Z,99.90
2023-02-09T19:19:00.820Z,99.90
2023-02-09T19:21:28.738Z,99.90
2023-02-09T19:23:55.752Z,99.90
2023-02-09T19:26:22.959Z,99.90
2023-02-09T19:28:50.787Z,99.90
2023-02-09T19:31:18.500Z,99.90
2023-02-09T19:33:45.348Z,99.90
2023-02-09T19:36:13.319Z,99.90
2023-02-09T19:38:40.136Z,99.90
2023-02-09T19:41:11.855Z,99.90
2023-02-09T19:43:39.590Z,99.90
2023-02-09T19:46:07.276Z,99.90
2023-02-09T19:48:34.106Z,99.90
2023-02-09T19:51:02.075Z,99.90
2023-02-09T19:53:28.927Z,99.90
2023-02-09T19:55:56.464Z,99.90
2023-02-09T19:58:23.629Z,99.90
2023-02-09T20:00:51.676Z,99.90
2023-02-09T20:03:18.995Z,99.90
2023-02-09T20:05:46.551Z,99.90
2023-02-09T20:08:17.237Z,99.90
2023-02-09T20:10:44.518Z,99.90
2023-02-09T20:13:13.440Z,99.90
2023-02-09T20:15:43.586Z,99.90
2023-02-09T20:18:12.173Z,99.90
2023-02-09T20:20:41.703Z,99.90
2023-02-09T20:23:09.486Z,99.90
2023-02-09T20:25:38.682Z,99.90
2023-02-09T20:28:05.556Z,99.90
2023-02-09T20:30:32.406Z,99.90
2023-02-09T20:32:59.173Z,99.90
2023-02-09T20:35:27.042Z,99.90
2023-02-09T20:37:56.731Z,99.90
2023-02-09T20:40:24.293Z,99.90
2023-02-09T20:43:09.567Z,99.90
2023-02-09T20:45:54.928Z,99.90
2023-02-09T20:48:21.798Z,99.90
2023-02-09T20:50:49.004Z,99.90
2023-02-09T20:53:17.610Z,99.90
2023-02-09T20:55:44.507Z,99.90
2023-02-09T20:58:13.662Z,99.90
2023-02-09T21:00:42.594Z,99.90
2023-02-09T21:03:11.100Z,99.90
2023-02-09T21:05:39.210Z,99.90
2023-02-09T21:08:09.004Z,99.90
2023-02-09T21:10:38.377Z,99.90
2023-02-09T21:13:06.789Z,99.90
2023-02-09T21:15:36.040Z,99.90
2023-02-09T21:18:03.017Z,99.90
2023-02-09T21:20:32.188Z,99.90
2023-02-09T21:23:00.584Z,99.90
2023-02-09T21:25:27.786Z,99.90
2023-02-09T21:27:59.262Z,99.90
2023-02-09T21:30:28.484Z,99.90
2023-02-09T21:32:56.143Z,99.90
2023-02-09T21:35:23.329Z,99.90
2023-02-09T21:37:50.172Z,99.90
2023-02-09T21:40:17.173Z,99.90
2023-02-09T21:42:45.377Z,99.90
2023-02-09T21:45:13.175Z,99.90
2023-02-09T21:47:40.391Z,99.90
2023-02-09T21:50:10.722Z,99.90
2023-02-09T21:52:38.829Z,99.90
2023-02-09T21:55:05.986Z,99.90
2023-02-09T21:57:32.770Z,99.90
2023-02-09T22:00:04.485Z,99.90
2023-02-09T22:02:33.691Z,99.90
2023-02-09T22:05:00.559Z,99.90
2023-02-09T22:07:27.916Z,99.90
2023-02-09T22:09:54.773Z,99.90
2023-02-09T22:12:21.793Z,99.90
2023-02-09T22:14:48.749Z,99.90
2023-02-09T22:17:17.057Z,99.90
2023-02-09T22:19:43.969Z,99.90
2023-02-09T22:22:11.334Z,99.90
2023-02-09T22:24:38.608Z,99.90
2023-02-09T22:27:08.406Z,99.90
2023-02-09T22:29:35.714Z,99.90
2023-02-09T22:32:02.681Z,99.90
2023-02-09T22:34:29.645Z,99.90
2023-02-09T22:36:57.525Z,99.90
2023-02-09T22:39:24.322Z,99.90
2023-02-09T22:41:51.198Z,99.90
2023-02-09T22:44:20.710Z,99.90
2023-02-09T22:46:47.543Z,99.90
2023-02-09T22:49:19.924Z,99.90
2023-02-09T22:51:48.707Z,99.90
2023-02-09T22:54:17.211Z,99.90
2023-02-09T22:56:45.748Z,99.90
2023-02-09T22:59:14.090Z,99.90
2023-02-09T23:01:41.213Z,99.90
2023-02-09T23:04:09.965Z,99.90
2023-02-09T23:06:36.977Z,99.90
2023-02-09T23:09:08.247Z,99.90
2023-02-09T23:11:35.810Z,99.90
2023-02-09T23:14:11.139Z,99.90
2023-02-09T23:16:41.891Z,99.90
2023-02-09T23:19:14.195Z,99.90
2023-02-09T23:21:43.762Z,99.90
2023-02-09T23:24:12.020Z,99.90
2023-02-09T23:26:39.702Z,99.90
2023-02-09T23:29:09.407Z,99.90
2023-02-09T23:31:38.210Z,99.90
2023-02-09T23:34:04.975Z,99.90
2023-02-09T23:36:33.691Z,99.90
2023-02-09T23:39:03.434Z,99.90
2023-02-09T23:41:30.321Z,99.90
2023-02-09T23:43:57.397Z,99.90
2023-02-09T23:46:28.416Z,99.90
2023-02-09T23:48:56.412Z,99.90
2023-02-09T23:51:26.956Z,99.90
2023-02-09T23:53:55.410Z,99.90
2023-02-09T23:56:22.921Z,99.90
2023-02-09T23:58:52.270Z,99.90
